createdAt,value
2023-04-02T00:00:45.602Z,93.24
2023-04-02T00:01:45.660Z,93.24
2023-04-02T00:02:45.651Z,93.34
2023-04-02T00:03:45.739Z,93.03
2023-04-02T00:04:45.682Z,93.13
2023-04-02T00:05:45.698Z,93.03
2023-04-02T00:06:45.749Z,92.82
2023-04-02T00:07:45.739Z,92.72
2023-04-02T00:08:45.748Z,92.82
2023-04-02T00:09:45.781Z,92.78
2023-04-02T00:10:45.786Z,92.57
2023-04-02T00:11:45.859Z,92.57
2023-04-02T00:12:45.825Z,92.57
2023-04-02T00:13:45.848Z,92.88
2023-04-02T00:14:45.865Z,92.68
2023-04-02T00:15:45.894Z,92.57
2023-04-02T00:16:46.037Z,92.16
2023-04-02T00:17:45.970Z,92.27
2023-04-02T00:18:45.925Z,92.37
2023-04-02T00:19:45.949Z,92.68
2023-04-02T00:20:45.962Z,92.78
2023-04-02T00:21:45.997Z,92.57
2023-04-02T00:22:46.007Z,92.88
2023-04-02T00:23:46.000Z,92.27
2023-04-02T00:24:46.014Z,92.27
2023-04-02T00:25:46.039Z,92.06
2023-04-02T00:26:46.064Z,92.78
2023-04-02T00:27:46.069Z,93.03
2023-04-02T00:28:46.080Z,93.24
2023-04-02T00:29:46.105Z,92.93
2023-04-02T00:30:46.126Z,92.51
2023-04-02T00:31:46.255Z,92.61
2023-04-02T00:32:46.246Z,92.61
2023-04-02T00:33:46.197Z,92.37
2023-04-02T00:34:46.196Z,92.27
2023-04-02T00:35:46.235Z,92.47
2023-04-02T00:36:46.256Z,92.41
2023-04-02T00:37:46.259Z,91.96
2023-04-02T00:38:47.505Z,92.06
2023-04-02T00:39:46.285Z,92.06
2023-04-02T00:40:46.303Z,92.06
2023-04-02T00:41:46.339Z,92.16
2023-04-02T00:42:46.341Z,92.37
2023-04-02T00:43:46.357Z,92.68
2023-04-02T00:44:46.367Z,92.27
2023-04-02T00:45:46.410Z,92.06
2023-04-02T00:46:46.422Z,92.27
2023-04-02T00:47:46.459Z,92.82
2023-04-02T00:48:46.431Z,92.61
2023-04-02T00:49:46.454Z,92.61
2023-04-02T00:50:46.472Z,92.51
2023-04-02T00:51:46.505Z,92.21
2023-04-02T00:52:46.531Z,92.51
2023-04-02T00:53:46.521Z,92.31
2023-04-02T00:54:46.544Z,92.31
2023-04-02T00:55:46.557Z,92.93
2023-04-02T00:56:46.654Z,92.82
2023-04-02T00:57:46.593Z,92.31
2023-04-02T00:58:46.607Z,92.00
2023-04-02T00:59:46.619Z,92.10
2023-04-02T01:00:46.640Z,92.82
2023-04-02T01:01:46.759Z,92.93
2023-04-02T01:02:46.737Z,92.72
2023-04-02T01:03:46.833Z,92.61
2023-04-02T01:04:46.708Z,92.61
2023-04-02T01:05:46.722Z,92.21
2023-04-02T01:06:46.774Z,92.61
2023-04-02T01:07:46.754Z,92.82
2023-04-02T01:08:46.778Z,92.41
2023-04-02T01:09:46.811Z,92.41
2023-04-02T01:10:46.822Z,92.41
2023-04-02T01:11:46.840Z,92.82
2023-04-02T01:12:46.846Z,92.93
2023-04-02T01:13:46.870Z,92.61
2023-04-02T01:14:46.900Z,92.82
2023-04-02T01:15:46.960Z,92.72
2023-04-02T01:16:46.933Z,92.72
2023-04-02T01:17:46.970Z,92.72
2023-04-02T01:18:46.954Z,93.24
2023-04-02T01:19:46.992Z,93.03
2023-04-02T01:20:46.997Z,92.93
2023-04-02T01:21:47.048Z,92.61
2023-04-02T01:22:47.026Z,92.51
2023-04-02T01:23:47.051Z,92.82
2023-04-02T01:24:47.066Z,92.93
2023-04-02T01:25:47.083Z,92.31
2023-04-02T01:26:47.141Z,92.61
2023-04-02T01:27:47.120Z,92.51
2023-04-02T01:28:47.136Z,92.41
2023-04-02T01:29:47.177Z,92.31
2023-04-02T01:30:47.172Z,91.89
2023-04-02T01:31:47.377Z,91.79
2023-04-02T01:32:47.260Z,92.21
2023-04-02T01:33:47.231Z,92.51
2023-04-02T01:34:47.237Z,92.21
2023-04-02T01:35:47.295Z,92.21
2023-04-02T01:36:47.286Z,91.89
2023-04-02T01:37:47.292Z,92.41
2023-04-02T01:38:47.302Z,92.41
2023-04-02T01:39:47.323Z,92.10
2023-04-02T01:40:47.342Z,92.21
2023-04-02T01:41:47.385Z,92.31
2023-04-02T01:42:47.390Z,92.82
2023-04-02T01:43:47.398Z,92.41
2023-04-02T01:44:47.415Z,92.72
2023-04-02T01:45:47.441Z,92.82
2023-04-02T01:46:47.506Z,93.03
2023-04-02T01:47:47.511Z,92.93
2023-04-02T01:48:47.487Z,92.93
2023-04-02T01:49:47.516Z,93.18
2023-04-02T01:50:47.522Z,93.28
2023-04-02T01:51:47.560Z,93.18
2023-04-02T01:52:47.562Z,93.13
2023-04-02T01:53:47.581Z,93.69
2023-04-02T01:54:47.601Z,93.07
2023-04-02T01:55:47.614Z,93.03
2023-04-02T01:56:47.658Z,92.93
2023-04-02T01:57:47.651Z,92.82
2023-04-02T01:58:47.663Z,92.86
2023-04-02T01:59:47.689Z,93.18
2023-04-02T02:00:47.740Z,92.86
2023-04-02T02:01:47.771Z,93.07
2023-04-02T02:02:47.731Z,93.28
2023-04-02T02:03:47.753Z,93.28
2023-04-02T02:04:47.768Z,93.07
2023-04-02T02:05:47.791Z,93.59
2023-04-02T02:06:47.829Z,93.79
2023-04-02T02:07:47.825Z,93.07
2023-04-02T02:08:47.838Z,93.07
2023-04-02T02:09:47.859Z,93.18
2023-04-02T02:10:47.868Z,93.28
2023-04-02T02:11:47.909Z,92.76
2023-04-02T02:12:47.995Z,93.18
2023-04-02T02:13:47.932Z,93.59
2023-04-02T02:14:47.944Z,93.69
2023-04-02T02:15:47.970Z,93.49
2023-04-02T02:16:48.061Z,93.38
2023-04-02T02:17:48.062Z,93.49
2023-04-02T02:18:48.009Z,93.38
2023-04-02T02:19:48.036Z,93.79
2023-04-02T02:20:48.043Z,94.00
2023-04-02T02:21:48.089Z,93.69
2023-04-02T02:22:48.080Z,93.79
2023-04-02T02:23:48.097Z,94.00
2023-04-02T02:24:48.107Z,94.10
2023-04-02T02:25:48.138Z,94.21
2023-04-02T02:26:48.162Z,94.00
2023-04-02T02:27:48.172Z,94.21
2023-04-02T02:28:48.182Z,94.21
2023-04-02T02:29:48.221Z,93.90
2023-04-02T02:30:48.222Z,93.79
2023-04-02T02:31:48.275Z,94.00
2023-04-02T02:32:48.353Z,94.31
2023-04-02T02:33:48.271Z,94.31
2023-04-02T02:34:48.287Z,94.31
2023-04-02T02:35:48.381Z,94.21
2023-04-02T02:36:48.358Z,94.10
2023-04-02T02:37:48.336Z,94.21
2023-04-02T02:38:48.354Z,94.42
2023-04-02T02:39:48.380Z,94.52
2023-04-02T02:40:48.388Z,94.31
2023-04-02T02:41:48.414Z,94.42
2023-04-02T02:42:48.426Z,94.10
2023-04-02T02:43:48.444Z,93.90
2023-04-02T02:44:48.459Z,94.10
2023-04-02T02:45:48.538Z,94.42
2023-04-02T02:46:48.490Z,94.42
2023-04-02T02:47:48.569Z,94.10
2023-04-02T02:48:48.522Z,94.31
2023-04-02T02:49:48.544Z,94.21
2023-04-02T02:50:48.557Z,94.00
2023-04-02T02:51:48.579Z,94.10
2023-04-02T02:52:48.588Z,94.42
2023-04-02T02:53:48.610Z,94.52
2023-04-02T02:54:48.640Z,94.72
2023-04-02T02:55:48.646Z,94.62
2023-04-02T02:56:48.711Z,94.52
2023-04-02T02:57:48.685Z,94.62
2023-04-02T02:58:48.695Z,94.93
2023-04-02T02:59:48.717Z,94.42
2023-04-02T03:00:48.752Z,94.56
2023-04-02T03:01:48.794Z,94.56
2023-04-02T03:02:48.834Z,94.82
2023-04-02T03:03:48.953Z,95.03
2023-04-02T03:04:48.792Z,94.82
2023-04-02T03:05:48.821Z,94.56
2023-04-02T03:06:48.854Z,94.87
2023-04-02T03:07:48.862Z,95.07
2023-04-02T03:08:48.902Z,94.87
2023-04-02T03:09:48.902Z,94.87
2023-04-02T03:10:48.913Z,94.56
2023-04-02T03:11:48.951Z,94.46
2023-04-02T03:12:48.942Z,94.82
2023-04-02T03:13:48.961Z,94.67
2023-04-02T03:14:48.975Z,94.31
2023-04-02T03:15:49.053Z,94.42
2023-04-02T03:16:49.053Z,94.10
2023-04-02T03:17:49.062Z,94.62
2023-04-02T03:18:49.049Z,94.72
2023-04-02T03:19:49.063Z,94.62
2023-04-02T03:20:49.090Z,95.14
2023-04-02T03:21:49.131Z,94.46
2023-04-02T03:22:49.117Z,94.56
2023-04-02T03:23:49.136Z,94.77
2023-04-02T03:24:49.156Z,94.97
2023-04-02T03:25:49.176Z,95.18
2023-04-02T03:26:49.207Z,95.07
2023-04-02T03:27:49.219Z,95.07
2023-04-02T03:28:49.228Z,94.77
2023-04-02T03:29:49.251Z,94.97
2023-04-02T03:30:49.267Z,95.18
2023-04-02T03:31:49.303Z,95.28
2023-04-02T03:32:49.323Z,95.28
2023-04-02T03:33:49.318Z,95.39
2023-04-02T03:34:49.335Z,95.49
2023-04-02T03:35:49.369Z,95.70
2023-04-02T03:36:49.387Z,95.70
2023-04-02T03:37:49.391Z,95.59
2023-04-02T03:38:49.406Z,95.70
2023-04-02T03:39:49.434Z,95.59
2023-04-02T03:40:49.451Z,95.28
2023-04-02T03:41:49.481Z,95.28
2023-04-02T03:42:49.500Z,95.39
2023-04-02T03:43:49.500Z,95.59
2023-04-02T03:44:49.527Z,95.70
2023-04-02T03:45:49.537Z,95.90
2023-04-02T03:46:49.682Z,95.80
2023-04-02T03:47:49.577Z,95.70
2023-04-02T03:48:49.607Z,95.59
2023-04-02T03:49:49.608Z,95.70
2023-04-02T03:50:49.623Z,95.59
2023-04-02T03:51:49.673Z,95.80
2023-04-02T03:52:49.664Z,94.97
2023-04-02T03:53:49.669Z,95.07
2023-04-02T03:54:53.502Z,94.87
2023-04-02T03:55:49.708Z,95.07
2023-04-02T03:56:49.768Z,95.39
2023-04-02T03:57:49.747Z,95.70
2023-04-02T03:58:49.764Z,95.59
2023-04-02T03:59:49.786Z,95.39
2023-04-02T04:00:49.808Z,95.28
2023-04-02T04:01:49.858Z,95.59
2023-04-02T04:02:49.877Z,95.70
2023-04-02T04:03:49.893Z,95.53
2023-04-02T04:04:49.853Z,95.53
2023-04-02T04:05:49.882Z,95.59
2023-04-02T04:06:49.915Z,95.95
2023-04-02T04:07:49.908Z,95.70
2023-04-02T04:08:49.926Z,95.64
2023-04-02T04:09:49.947Z,95.18
2023-04-02T04:10:49.969Z,95.12
2023-04-02T04:11:49.997Z,94.60
2023-04-02T04:12:49.991Z,95.28
2023-04-02T04:13:50.010Z,95.39
2023-04-02T04:14:50.020Z,94.92
2023-04-02T04:15:50.040Z,94.71
2023-04-02T04:16:50.149Z,95.02
2023-04-02T04:17:50.141Z,95.02
2023-04-02T04:18:50.097Z,94.50
2023-04-02T04:19:50.113Z,94.92
2023-04-02T04:20:50.132Z,95.02
2023-04-02T04:21:50.156Z,95.12
2023-04-02T04:22:50.180Z,95.32
2023-04-02T04:23:50.193Z,95.22
2023-04-02T04:24:50.202Z,95.32
2023-04-02T04:25:50.223Z,95.64
2023-04-02T04:26:50.250Z,95.43
2023-04-02T04:27:50.256Z,95.53
2023-04-02T04:28:50.270Z,95.78
2023-04-02T04:29:50.311Z,95.78
2023-04-02T04:30:50.304Z,95.78
2023-04-02T04:31:50.400Z,95.57
2023-04-02T04:32:50.432Z,95.37
2023-04-02T04:33:50.365Z,95.37
2023-04-02T04:34:50.380Z,95.27
2023-04-02T04:35:50.436Z,95.27
2023-04-02T04:36:50.424Z,94.96
2023-04-02T04:37:50.436Z,94.96
2023-04-02T04:38:50.448Z,94.96
2023-04-02T04:39:50.471Z,95.06
2023-04-02T04:40:50.482Z,95.27
2023-04-02T04:41:50.514Z,95.17
2023-04-02T04:42:50.525Z,95.27
2023-04-02T04:43:50.565Z,95.78
2023-04-02T04:44:50.553Z,95.89
2023-04-02T04:45:50.628Z,95.99
2023-04-02T04:46:50.608Z,96.30
2023-04-02T04:47:50.678Z,96.51
2023-04-02T04:48:50.629Z,95.99
2023-04-02T04:49:50.680Z,95.99
2023-04-02T04:50:50.668Z,96.41
2023-04-02T04:51:50.714Z,96.41
2023-04-02T04:52:50.696Z,96.41
2023-04-02T04:53:50.721Z,96.20
2023-04-02T04:54:50.742Z,95.99
2023-04-02T04:55:50.755Z,95.37
2023-04-02T04:56:50.808Z,95.27
2023-04-02T04:57:50.780Z,95.48
2023-04-02T04:58:50.794Z,95.48
2023-04-02T04:59:50.819Z,95.57
2023-04-02T05:00:50.836Z,95.57
2023-04-02T05:01:50.882Z,95.37
2023-04-02T05:02:50.899Z,95.37
2023-04-02T05:03:50.889Z,95.48
2023-04-02T05:04:50.928Z,95.78
2023-04-02T05:05:50.926Z,95.48
2023-04-02T05:06:50.962Z,95.48
2023-04-02T05:07:50.963Z,95.57
2023-04-02T05:08:50.985Z,95.89
2023-04-02T05:09:50.976Z,95.89
2023-04-02T05:10:51.009Z,95.99
2023-04-02T05:11:51.021Z,96.09
2023-04-02T05:12:51.032Z,95.94
2023-04-02T05:13:51.038Z,96.14
2023-04-02T05:14:51.053Z,95.94
2023-04-02T05:15:51.109Z,96.03
2023-04-02T05:16:51.120Z,95.94
2023-04-02T05:17:51.159Z,96.34
2023-04-02T05:18:51.125Z,96.24
2023-04-02T05:19:51.137Z,96.24
2023-04-02T05:20:51.155Z,96.34
2023-04-02T05:21:51.204Z,96.45
2023-04-02T05:22:51.190Z,96.45
2023-04-02T05:23:51.199Z,96.55
2023-04-02T05:24:51.229Z,96.76
2023-04-02T05:25:51.242Z,96.70
2023-04-02T05:26:51.295Z,96.70
2023-04-02T05:27:51.285Z,96.91
2023-04-02T05:28:51.309Z,97.32
2023-04-02T05:29:51.320Z,97.22
2023-04-02T05:30:51.340Z,97.32
2023-04-02T05:31:51.368Z,97.28
2023-04-02T05:32:51.401Z,97.17
2023-04-02T05:33:51.389Z,96.86
2023-04-02T05:34:51.401Z,96.86
2023-04-02T05:35:51.440Z,96.97
2023-04-02T05:36:51.459Z,96.86
2023-04-02T05:37:51.441Z,96.97
2023-04-02T05:38:51.464Z,97.07
2023-04-02T05:39:51.483Z,97.07
2023-04-02T05:40:51.497Z,97.07
2023-04-02T05:41:51.528Z,96.76
2023-04-02T05:42:51.531Z,96.34
2023-04-02T05:43:51.540Z,96.34
2023-04-02T05:44:51.562Z,96.34
2023-04-02T05:45:51.580Z,96.34
2023-04-02T05:46:51.642Z,96.24
2023-04-02T05:47:51.664Z,96.34
2023-04-02T05:48:51.642Z,96.14
2023-04-02T05:49:51.655Z,96.09
2023-04-02T05:50:51.670Z,96.30
2023-04-02T05:51:51.689Z,96.09
2023-04-02T05:52:51.720Z,95.89
2023-04-02T05:53:51.721Z,95.99
2023-04-02T05:54:51.744Z,95.68
2023-04-02T05:55:51.766Z,95.02
2023-04-02T05:56:51.785Z,94.81
2023-04-02T05:58:13.341Z,95.32
2023-04-02T05:58:51.923Z,95.32
2023-04-02T05:59:51.827Z,95.32
2023-04-02T06:00:51.850Z,95.43
2023-04-02T06:01:51.909Z,95.64
2023-04-02T06:02:51.960Z,95.53
2023-04-02T06:03:51.945Z,94.97
2023-04-02T06:04:51.922Z,94.67
2023-04-02T06:05:51.930Z,94.56
2023-04-02T06:06:51.970Z,93.94
2023-04-02T06:07:51.968Z,93.94
2023-04-02T06:08:51.992Z,94.25
2023-04-02T06:09:52.011Z,93.69
2023-04-02T06:10:52.019Z,93.07
2023-04-02T06:11:52.058Z,93.69
2023-04-02T06:12:52.048Z,93.49
2023-04-02T06:13:52.063Z,93.38
2023-04-02T06:14:52.086Z,92.97
2023-04-02T06:15:52.098Z,92.55
2023-04-02T06:16:52.194Z,93.07
2023-04-02T06:17:52.171Z,93.44
2023-04-02T06:18:52.158Z,93.03
2023-04-02T06:19:52.170Z,92.82
2023-04-02T06:20:52.191Z,92.93
2023-04-02T06:21:52.223Z,92.31
2023-04-02T06:22:52.216Z,91.58
2023-04-02T06:23:52.232Z,91.38
2023-04-02T06:24:52.255Z,91.28
2023-04-02T06:25:53.353Z,91.38
2023-04-02T06:26:52.306Z,91.13
2023-04-02T06:27:52.307Z,91.24
2023-04-02T06:28:52.332Z,90.92
2023-04-02T06:29:52.355Z,91.34
2023-04-02T06:30:52.391Z,91.34
2023-04-02T06:31:52.392Z,90.72
2023-04-02T06:32:52.469Z,90.41
2023-04-02T06:33:52.410Z,90.51
2023-04-02T06:34:52.433Z,91.03
2023-04-02T06:35:52.520Z,90.88
2023-04-02T06:36:52.495Z,90.67
2023-04-02T06:37:52.490Z,90.67
2023-04-02T06:38:52.514Z,90.78
2023-04-02T06:39:52.527Z,90.06
2023-04-02T06:40:52.548Z,90.06
2023-04-02T06:41:52.580Z,90.47
2023-04-02T06:42:52.580Z,89.79
2023-04-02T06:43:52.595Z,90.99
2023-04-02T06:44:52.623Z,90.37
2023-04-02T06:45:52.790Z,89.95
2023-04-02T06:46:52.818Z,90.47
2023-04-02T06:47:52.758Z,90.37
2023-04-02T06:48:52.691Z,90.22
2023-04-02T06:49:52.714Z,89.61
2023-04-02T06:50:52.724Z,89.91
2023-04-02T06:51:52.758Z,89.19
2023-04-02T06:52:52.767Z,89.46
2023-04-02T06:53:52.777Z,89.15
2023-04-02T06:54:52.836Z,89.05
2023-04-02T06:55:52.822Z,88.53
2023-04-02T06:56:52.901Z,88.53
2023-04-02T06:57:52.846Z,88.43
2023-04-02T06:58:52.866Z,88.12
2023-04-02T06:59:52.893Z,88.33
2023-04-02T07:00:52.903Z,88.64
2023-04-02T07:01:53.028Z,89.05
2023-04-02T07:02:52.976Z,89.01
2023-04-02T07:03:52.945Z,87.98
2023-04-02T07:04:53.042Z,87.15
2023-04-02T07:05:52.978Z,88.59
2023-04-02T07:06:53.016Z,87.22
2023-04-02T07:07:53.012Z,87.57
2023-04-02T07:08:53.044Z,87.87
2023-04-02T07:09:53.046Z,88.24
2023-04-02T07:10:53.075Z,87.84
2023-04-02T07:11:53.110Z,86.60
2023-04-02T07:12:53.111Z,87.84
2023-04-02T07:13:53.126Z,87.42
2023-04-02T07:14:53.153Z,87.01
2023-04-02T07:15:53.176Z,87.32
2023-04-02T07:16:53.196Z,86.50
2023-04-02T07:17:53.244Z,86.91
2023-04-02T07:18:53.209Z,85.98
2023-04-02T07:19:53.215Z,86.08
2023-04-02T07:20:53.252Z,86.91
2023-04-02T07:21:53.277Z,86.77
2023-04-02T07:22:53.281Z,87.38
2023-04-02T07:23:53.279Z,86.56
2023-04-02T07:24:53.308Z,86.25
2023-04-02T07:25:53.326Z,86.42
2023-04-02T07:26:53.361Z,87.13
2023-04-02T07:27:53.362Z,85.90
2023-04-02T07:28:53.414Z,85.80
2023-04-02T07:29:53.425Z,85.46
2023-04-02T07:30:53.417Z,85.66
2023-04-02T07:31:53.465Z,85.14
2023-04-02T07:32:53.550Z,85.35
2023-04-02T07:33:53.457Z,84.42
2023-04-02T07:34:53.484Z,84.94
2023-04-02T07:35:53.534Z,85.46
2023-04-02T07:36:53.542Z,85.04
2023-04-02T07:37:53.536Z,85.25
2023-04-02T07:38:53.568Z,85.04
2023-04-02T07:39:53.573Z,84.84
2023-04-02T07:40:53.599Z,85.14
2023-04-02T07:41:53.624Z,84.56
2023-04-02T07:42:53.622Z,85.28
2023-04-02T07:43:53.634Z,85.49
2023-04-02T07:44:53.669Z,85.28
2023-04-02T07:45:53.666Z,84.77
2023-04-02T07:46:53.723Z,84.67
2023-04-02T07:47:53.734Z,84.88
2023-04-02T07:48:53.734Z,85.28
2023-04-02T07:49:53.738Z,84.98
2023-04-02T07:50:53.785Z,85.18
2023-04-02T07:51:53.794Z,85.04
2023-04-02T07:52:53.798Z,85.35
2023-04-02T07:53:53.818Z,85.25
2023-04-02T07:54:53.841Z,84.94
2023-04-02T07:55:53.851Z,85.25
2023-04-02T07:56:53.964Z,85.14
2023-04-02T07:57:53.889Z,84.63
2023-04-02T07:58:53.913Z,84.74
2023-04-02T07:59:53.922Z,84.63
2023-04-02T08:00:53.948Z,84.42
2023-04-02T08:01:53.983Z,84.94
2023-04-02T08:02:54.089Z,84.49
2023-04-02T08:03:54.715Z,84.28
2023-04-02T08:04:54.019Z,84.86
2023-04-02T08:05:54.034Z,83.49
2023-04-02T08:06:54.079Z,82.97
2023-04-02T08:07:54.074Z,83.07
2023-04-02T08:08:54.097Z,82.12
2023-04-02T08:09:54.134Z,82.12
2023-04-02T08:10:54.126Z,81.29
2023-04-02T08:11:54.155Z,81.60
2023-04-02T08:12:54.155Z,81.81
2023-04-02T08:13:54.168Z,81.60
2023-04-02T08:14:54.188Z,80.27
2023-04-02T08:15:54.196Z,81.29
2023-04-02T08:16:54.364Z,80.99
2023-04-02T08:17:54.301Z,81.40
2023-04-02T08:18:54.272Z,81.50
2023-04-02T08:19:55.368Z,81.20
2023-04-02T08:20:54.306Z,82.83
2023-04-02T08:21:54.322Z,82.22
2023-04-02T08:22:54.320Z,82.08
2023-04-02T08:23:54.329Z,80.44
2023-04-02T08:24:54.355Z,81.67
2023-04-02T08:25:54.359Z,81.67
2023-04-02T08:26:54.405Z,81.09
2023-04-02T08:27:54.383Z,81.60
2023-04-02T08:28:54.394Z,81.36
2023-04-02T08:29:54.417Z,80.74
2023-04-02T08:30:54.526Z,80.71
2023-04-02T08:31:54.457Z,80.81
2023-04-02T08:32:54.522Z,81.01
2023-04-02T08:33:54.469Z,81.59
2023-04-02T08:34:54.487Z,80.46
2023-04-02T08:35:54.543Z,79.96
2023-04-02T08:36:54.537Z,77.97
2023-04-02T08:37:54.534Z,79.00
2023-04-02T08:38:54.549Z,79.41
2023-04-02T08:39:54.568Z,78.24
2023-04-02T08:40:54.574Z,78.75
2023-04-02T08:41:54.617Z,77.42
2023-04-02T08:42:54.616Z,76.57
2023-04-02T08:43:54.627Z,77.12
2023-04-02T08:44:54.648Z,76.61
2023-04-02T08:45:54.684Z,76.61
2023-04-02T08:46:54.685Z,77.32
2023-04-02T08:47:54.733Z,78.34
2023-04-02T08:48:54.705Z,77.73
2023-04-02T08:49:54.710Z,78.14
2023-04-02T08:50:54.735Z,77.42
2023-04-02T08:51:54.755Z,78.75
2023-04-02T08:52:54.763Z,78.69
2023-04-02T08:53:54.794Z,78.89
2023-04-02T08:54:54.793Z,78.55
2023-04-02T08:55:54.804Z,77.22
2023-04-02T08:56:54.854Z,77.01
2023-04-02T08:57:54.854Z,77.22
2023-04-02T08:58:54.866Z,76.71
2023-04-02T08:59:54.869Z,77.12
2023-04-02T09:00:54.913Z,77.22
2023-04-02T09:01:54.971Z,77.53
2023-04-02T09:02:54.966Z,77.26
2023-04-02T09:03:54.945Z,76.84
2023-04-02T09:04:55.019Z,77.29
2023-04-02T09:05:54.976Z,78.05
2023-04-02T09:06:55.014Z,79.48
2023-04-02T09:07:55.001Z,78.97
2023-04-02T09:08:55.018Z,79.68
2023-04-02T09:09:55.031Z,80.30
2023-04-02T09:10:55.052Z,81.32
2023-04-02T09:11:55.080Z,80.71
2023-04-02T09:12:55.083Z,81.63
2023-04-02T09:13:55.094Z,80.91
2023-04-02T09:14:55.110Z,81.18
2023-04-02T09:15:55.148Z,79.64
2023-04-02T09:16:55.164Z,80.67
2023-04-02T09:17:56.643Z,80.88
2023-04-02T09:18:55.162Z,80.60
2023-04-02T09:19:55.174Z,80.30
2023-04-02T09:20:55.195Z,81.52
2023-04-02T09:21:55.211Z,81.63
2023-04-02T09:22:55.236Z,81.32
2023-04-02T09:23:55.241Z,81.77
2023-04-02T09:24:55.253Z,81.77
2023-04-02T09:26:04.196Z,82.39
2023-04-02T09:26:55.303Z,83.20
2023-04-02T09:27:55.306Z,83.72
2023-04-02T09:28:55.315Z,84.68
2023-04-02T09:29:55.331Z,85.30
2023-04-02T09:30:55.340Z,85.71
2023-04-02T09:31:55.441Z,85.50
2023-04-02T09:32:55.376Z,86.01
2023-04-02T09:33:55.392Z,85.91
2023-04-02T09:34:55.404Z,86.83
2023-04-02T09:35:55.465Z,87.34
2023-04-02T09:36:55.472Z,87.04
2023-04-02T09:37:55.468Z,87.28
2023-04-02T09:38:55.478Z,87.70
2023-04-02T09:39:55.500Z,86.83
2023-04-02T09:40:55.506Z,87.24
2023-04-02T09:42:05.055Z,87.24
2023-04-02T09:42:55.540Z,86.48
2023-04-02T09:43:55.551Z,85.97
2023-04-02T09:44:55.565Z,85.15
2023-04-02T09:45:55.577Z,84.39
2023-04-02T09:46:55.680Z,84.91
2023-04-02T09:47:55.638Z,82.65
2023-04-02T09:48:55.617Z,85.11
2023-04-02T09:49:55.637Z,85.11
2023-04-02T09:50:55.645Z,84.09
2023-04-02T09:51:55.685Z,83.17
2023-04-02T09:52:55.682Z,83.47
2023-04-02T09:53:55.697Z,84.29
2023-04-02T09:54:55.706Z,82.96
2023-04-02T09:55:55.724Z,83.06
2023-04-02T09:56:55.754Z,81.08
2023-04-02T09:57:55.761Z,81.49
2023-04-02T09:58:55.765Z,81.96
2023-04-02T09:59:55.787Z,81.72
2023-04-02T10:00:55.803Z,80.66
2023-04-02T10:01:55.953Z,80.62
2023-04-02T10:02:55.967Z,78.23
2023-04-02T10:03:55.883Z,76.29
2023-04-02T10:04:55.863Z,74.93
2023-04-02T10:05:55.876Z,76.06
2023-04-02T10:06:55.944Z,73.91
2023-04-02T10:07:55.903Z,76.53
2023-04-02T10:08:55.919Z,74.59
2023-04-02T10:09:55.933Z,76.02
2023-04-02T10:10:55.962Z,73.43
2023-04-02T10:11:55.999Z,72.82
2023-04-02T10:12:55.979Z,73.84
2023-04-02T10:13:56.008Z,74.15
2023-04-02T10:14:56.015Z,74.15
2023-04-02T10:15:56.034Z,73.74
2023-04-02T10:16:56.149Z,72.45
2023-04-02T10:17:56.084Z,72.86
2023-04-02T10:18:56.086Z,73.27
2023-04-02T10:19:56.093Z,73.10
2023-04-02T10:20:56.101Z,74.25
2023-04-02T10:21:56.136Z,74.97
2023-04-02T10:22:56.131Z,74.87
2023-04-02T10:23:56.155Z,75.13
2023-04-02T10:24:56.165Z,74.32
2023-04-02T10:25:56.188Z,73.50
2023-04-02T10:26:56.212Z,72.48
2023-04-02T10:27:56.211Z,73.50
2023-04-02T10:28:56.226Z,73.40
2023-04-02T10:29:56.245Z,72.86
2023-04-02T10:30:56.272Z,73.27
2023-04-02T10:31:56.282Z,73.74
2023-04-02T10:32:56.342Z,72.11
2023-04-02T10:33:56.314Z,72.21
2023-04-02T10:34:56.320Z,73.43
2023-04-02T10:35:56.389Z,72.41
2023-04-02T10:36:56.368Z,71.02
2023-04-02T10:37:56.370Z,71.63
2023-04-02T10:38:56.400Z,70.92
2023-04-02T10:39:56.406Z,72.65
2023-04-02T10:40:57.065Z,72.41
2023-04-02T10:41:56.466Z,71.91
2023-04-02T10:42:56.439Z,73.54
2023-04-02T10:43:59.301Z,72.41
2023-04-02T10:44:56.485Z,72.41
2023-04-02T10:45:56.519Z,72.69
2023-04-02T10:46:56.524Z,71.15
2023-04-02T10:47:56.569Z,70.48
2023-04-02T10:48:56.529Z,71.50
2023-04-02T10:49:56.547Z,71.39
2023-04-02T10:50:56.561Z,72.86
2023-04-02T10:51:56.604Z,73.43
2023-04-02T10:52:56.809Z,72.45
2023-04-02T10:53:56.604Z,71.63
2023-04-02T10:54:56.613Z,72.96
2023-04-02T10:55:56.633Z,73.19
2023-04-02T10:56:56.679Z,72.45
2023-04-02T10:57:56.661Z,72.45
2023-04-02T10:58:57.576Z,72.45
2023-04-02T10:59:56.694Z,72.96
2023-04-02T11:00:56.704Z,71.87
2023-04-02T11:01:56.815Z,71.97
2023-04-02T11:02:56.883Z,73.27
2023-04-02T11:03:58.199Z,73.03
2023-04-02T11:04:57.507Z,72.14
2023-04-02T11:05:57.212Z,73.36
2023-04-02T11:07:07.260Z,73.91
2023-04-02T11:07:56.822Z,76.06
2023-04-02T11:08:56.832Z,75.85
2023-04-02T11:09:56.853Z,76.93
2023-04-02T11:10:56.865Z,75.78
2023-04-02T11:11:56.910Z,75.88
2023-04-02T11:12:56.889Z,74.83
2023-04-02T11:13:56.908Z,74.90
2023-04-02T11:14:56.915Z,73.16
2023-04-02T11:15:56.954Z,72.86
2023-04-02T11:16:57.015Z,72.55
2023-04-02T11:17:56.983Z,73.36
2023-04-02T11:18:56.969Z,70.82
2023-04-02T11:19:56.995Z,71.70
2023-04-02T11:20:57.000Z,69.87
2023-04-02T11:21:59.950Z,71.19
2023-04-02T11:22:57.029Z,71.30
2023-04-02T11:23:57.062Z,70.38
2023-04-02T11:24:57.055Z,71.63
2023-04-02T11:25:57.072Z,69.32
2023-04-02T11:26:57.108Z,71.36
2023-04-02T11:27:57.100Z,71.46
2023-04-02T11:28:57.112Z,70.54
2023-04-02T11:29:57.132Z,72.08
2023-04-02T11:30:57.148Z,71.67
2023-04-02T11:31:57.184Z,71.94
2023-04-02T11:32:57.201Z,71.63
2023-04-02T11:33:57.194Z,70.10
2023-04-02T11:35:06.555Z,70.41
2023-04-02T11:35:57.247Z,70.31
2023-04-02T11:36:57.260Z,70.21
2023-04-02T11:37:57.258Z,69.59
2023-04-02T11:39:04.466Z,69.97
2023-04-02T11:39:57.292Z,70.38
2023-04-02T11:40:57.324Z,70.58
2023-04-02T11:41:57.353Z,71.09
2023-04-02T11:42:57.326Z,70.89
2023-04-02T11:43:57.343Z,69.97
2023-04-02T11:44:57.357Z,72.69
2023-04-02T11:45:57.727Z,71.26
2023-04-02T11:46:57.524Z,68.99
2023-04-02T11:47:57.462Z,68.88
2023-04-02T11:48:57.423Z,68.18
2023-04-02T11:49:57.453Z,69.49
2023-04-02T11:50:57.471Z,69.77
2023-04-02T11:52:09.032Z,69.46
2023-04-02T11:52:57.497Z,68.44
2023-04-02T11:53:57.512Z,65.30
2023-04-02T11:54:57.534Z,67.36
2023-04-02T11:55:57.587Z,67.46
2023-04-02T11:56:57.586Z,68.38
2023-04-02T11:57:57.572Z,67.46
2023-04-02T11:58:57.579Z,66.99
2023-04-02T11:59:57.595Z,66.78
2023-04-02T12:00:57.636Z,67.19
2023-04-02T12:01:57.689Z,68.07
2023-04-02T12:02:57.658Z,67.69
2023-04-02T12:03:57.677Z,67.19
2023-04-02T12:04:57.700Z,66.27
2023-04-02T12:05:57.691Z,67.19
2023-04-02T12:06:57.733Z,65.97
2023-04-02T12:07:57.722Z,67.49
2023-04-02T12:08:58.392Z,68.10
2023-04-02T12:09:57.770Z,70.65
2023-04-02T12:10:57.771Z,70.24
2023-04-02T12:11:57.819Z,69.97
2023-04-02T12:12:57.791Z,69.76
2023-04-02T12:13:57.819Z,67.43
2023-04-02T12:14:57.827Z,68.75
2023-04-02T12:15:57.842Z,69.36
2023-04-02T12:16:57.936Z,68.85
2023-04-02T12:17:57.914Z,68.04
2023-04-02T12:18:57.884Z,68.85
2023-04-02T12:19:57.913Z,68.54
2023-04-02T12:20:57.914Z,69.97
2023-04-02T12:21:57.982Z,70.28
2023-04-02T12:22:57.952Z,68.21
2023-04-02T12:23:57.960Z,68.01
2023-04-02T12:24:57.980Z,69.40
2023-04-02T12:25:57.997Z,67.43
2023-04-02T12:26:58.042Z,67.53
2023-04-02T12:27:58.024Z,67.63
2023-04-02T12:28:58.028Z,66.89
2023-04-02T12:29:58.056Z,66.15
2023-04-02T12:30:58.084Z,67.88
2023-04-02T12:31:58.117Z,64.65
2023-04-02T12:32:58.147Z,66.89
2023-04-02T12:33:58.118Z,67.60
2023-04-02T12:34:58.128Z,68.21
2023-04-02T12:35:58.192Z,66.89
2023-04-02T12:36:58.167Z,67.10
2023-04-02T12:37:58.188Z,66.72
2023-04-02T12:38:58.187Z,68.44
2023-04-02T12:39:58.191Z,66.85
2023-04-02T12:40:58.227Z,70.10
2023-04-02T12:41:58.280Z,70.48
2023-04-02T12:42:58.244Z,69.26
2023-04-02T12:43:58.266Z,69.43
2023-04-02T12:44:58.271Z,69.23
2023-04-02T12:45:58.366Z,68.85
2023-04-02T12:46:58.338Z,69.29
2023-04-02T12:47:58.400Z,68.99
2023-04-02T12:48:58.332Z,68.48
2023-04-02T12:49:58.358Z,69.02
2023-04-02T12:50:58.385Z,68.85
2023-04-02T12:51:58.418Z,70.38
2023-04-02T12:52:58.422Z,70.07